Arcadia — ZCDN9 — position and weather

sailwx.info

Track history (hours):
 
Tides and Currents Weather Stations Pressure Air Temp Water Temp Dewpoint Dewpoint Depression Visibility Wind Speed Wind Dir Waves Ship Positions

Arcadia

Last reported at 2017-Sep-25 01:00 UTC. Time now 2017-Sep-25 07:49 UTC.
Position N 36°30' E 021°48'.

Length 285.1 m; beam 32.2 m; draft 8 m.

Type: Passenger vessel. MMSI: 310473000.

Wind from 360 at 5 knots

Barometer 1016.3 mb
Air temperature 22.0 ° C
Visibility: greater than 10.8 NM
Dewpoint 16.6 ° C
Water temperature 25.0 ° C

Date/timePositionNaut miles runAvg speedWind from/ knotsBaromVisibWave heightAir tempDewpointWater temp
2017-Sep-25 01:00N 36°30' E 021°48'15115.9 360 / 51016.310.8 22.016.625.0
2017-Sep-24 15:30N 37°14' E 024°48'917.6
2017-Sep-24 15:01N 37°19' E 024°57'917.9
2017-Sep-24 14:31N 37°24' E 025°06'917.1
2017-Sep-24 14:01N 37°28' E 025°16'3 5.1
2017-Sep-24 13:28N 37°28' E 025°19'0 0.0
2017-Sep-24 12:58N 37°28' E 025°19'0 0.0
2017-Sep-24 12:25N 37°28' E 025°19'0 0.0
2017-Sep-24 11:58N 37°28' E 025°19'0 0.0
2017-Sep-24 11:25N 37°28' E 025°19'0 0.0
2017-Sep-24 10:58N 37°28' E 025°19'0 0.0
2017-Sep-24 10:28N 37°28' E 025°19'0 0.0
2017-Sep-24 09:07N 37°28' E 025°19'0 0.0
2017-Sep-24 08:58N 37°28' E 025°19'0 0.0
2017-Sep-24 08:28N 37°28' E 025°19'0 0.0
2017-Sep-24 07:49N 37°28' E 025°19'0 0.0
2017-Sep-24 07:28N 37°28' E 025°19'0 0.0
2017-Sep-24 06:58N 37°28' E 025°19'0 0.0
2017-Sep-24 06:25N 37°28' E 025°19'0 0.0
2017-Sep-24 05:58N 37°28' E 025°19'0 0.0
2017-Sep-24 05:28N 37°28' E 025°19'0 0.0
2017-Sep-24 04:58N 37°28' E 025°19'0 0.5
2017-Sep-24 04:30N 37°28' E 025°19'3 5.8
2017-Sep-24 04:00N 37°27' E 025°16'511.1
2017-Sep-24 03:30N 37°26' E 025°09'611.4
2017-Sep-24 02:58N 37°23' E 025°02'511.7
2017-Sep-24 02:31N 37°21' E 024°56'612.0
2017-Sep-24 02:01N 37°19' E 024°49'2120.8
2017-Sep-24 01:00N 37°12' E 024°24'170 4.8 360 / 91019.810.8 21.713.124.4
2017-Sep-22 14:00N 36°12' E 021°06'21417.8 330 / 241019.710.8 23.413.125.8
2017-Sep-22 02:00N 36°00' E 016°42'7314.6 1020.210.8 22.212.925.6
2017-Sep-21 21:00N 36°00' E 015°12'1540.4 320 / 81020.410.8 22.014.023.5
2017-Sep-21 20:37N 36°03' E 014°53'217.8
2017-Sep-21 20:29N 36°02' E 014°51'917.7
2017-Sep-21 20:00N 35°58' E 014°42'815.4
2017-Sep-21 19:30N 35°55' E 014°33'3 0.2
2017-Sep-21 03:56N 35°53' E 014°31'3 6.7
2017-Sep-21 03:30N 35°55' E 014°33'611.9
2017-Sep-21 03:00N 35°59' E 014°39'817.3
2017-Sep-21 02:30N 36°04' E 014°47'1325.2
2017-Sep-21 02:00N 36°12' E 015°00'9318.5 330 / 231018.010.8 21.010.922.7
2017-Sep-20 20:58N 37°23' E 016°14'1019.4
2017-Sep-20 20:28N 37°31' E 016°21'12717.0
2017-Sep-20 13:00N 39°12' E 018°00'19217.5 320 / 171011.710.8 22.713.225.1
2017-Sep-20 02:00N 42°06' E 016°12'155 7.1 030 / 81008.910.8 17.810.422.5
2017-Sep-19 04:05N 44°23' E 014°33'316.2
2017-Sep-19 03:56N 44°23' E 014°29'715.9
2017-Sep-19 03:30N 44°24' E 014°20'815.9
2017-Sep-19 03:01N 44°25' E 014°09'816.0
2017-Sep-19 02:30N 44°26' E 013°58'815.4
2017-Sep-19 02:00N 44°24' E 013°47'816.1
2017-Sep-19 01:30N 44°30' E 013°39'816.6
2017-Sep-19 01:01N 44°37' E 013°33'816.6
2017-Sep-19 00:31N 44°44' E 013°26'816.7
2017-Sep-19 00:00N 44°51' E 013°20'815.5
2017-Sep-18 23:30N 44°55' E 013°11'917.2
2017-Sep-18 23:00N 44°56' E 012°59'816.0
2017-Sep-18 22:31N 44°58' E 012°48'816.8
2017-Sep-18 22:01N 45°05' E 012°42'816.5
2017-Sep-18 21:30N 45°10' E 012°33'714.1
2017-Sep-18 21:00N 45°17' E 012°30'612.9
2017-Sep-18 20:30N 45°24' E 012°29'5 9.4
2017-Sep-18 20:00N 45°26' E 012°23'3 5.2
2017-Sep-18 19:30N 45°26' E 012°20'1 1.5
2017-Sep-18 18:59N 45°26' E 012°19'0 0.0
2017-Sep-18 18:29N 45°26' E 012°19'0 0.0
2017-Sep-18 17:59N 45°26' E 012°19'0 0.0
2017-Sep-18 17:29N 45°26' E 012°19'0 0.0
2017-Sep-18 16:59N 45°26' E 012°19'0 0.0
2017-Sep-18 16:29N 45°26' E 012°19'0 0.0
2017-Sep-18 15:59N 45°26' E 012°19'0 0.0
2017-Sep-18 15:29N 45°26' E 012°19'0 0.0
2017-Sep-18 14:59N 45°26' E 012°19'0 0.0
2017-Sep-18 14:29N 45°26' E 012°19'0 0.0
2017-Sep-18 13:59N 45°26' E 012°19'0 0.0
2017-Sep-18 13:29N 45°26' E 012°19'0 0.0
2017-Sep-18 12:59N 45°26' E 012°19'0 0.0
2017-Sep-18 12:29N 45°26' E 012°19'0 0.0
2017-Sep-18 11:59N 45°26' E 012°19'0 0.0
2017-Sep-18 11:29N 45°26' E 012°19'0 0.0
2017-Sep-18 10:59N 45°26' E 012°19'0 0.0
2017-Sep-18 10:29N 45°26' E 012°19'0 0.0
2017-Sep-18 09:59N 45°26' E 012°19'0 0.0
2017-Sep-18 09:29N 45°26' E 012°19'0 0.0
2017-Sep-18 08:59N 45°26' E 012°19'0 0.0
2017-Sep-18 08:29N 45°26' E 012°19'0 0.0
2017-Sep-18 07:59N 45°26' E 012°19'0 0.0
2017-Sep-18 07:29N 45°26' E 012°19'0 0.0
2017-Sep-18 06:59N 45°26' E 012°19'0 0.0
2017-Sep-18 06:26N 45°26' E 012°19'0 0.0
2017-Sep-18 05:59N 45°26' E 012°19'1 2.5
2017-Sep-18 05:30N 45°26' E 012°20'3 5.8
2017-Sep-18 05:00N 45°26' E 012°24'5 9.7
2017-Sep-18 04:30N 45°23' E 012°30'611.8
2017-Sep-18 04:00N 45°18' E 012°32'714.4
2017-Sep-18 03:31N 45°12' E 012°39'714.4
2017-Sep-18 03:01N 45°09' E 012°48'714.3
2017-Sep-18 02:30N 45°03' E 012°52'714.2
2017-Sep-18 02:01N 44°56' E 012°55'8470.0
2017-Sep-18 02:00N 44°48' E 012°54'3 6.6 240 / 171014.210.8 19.511.022.0
2017-Sep-18 01:30N 44°49' E 012°58'816.9
2017-Sep-18 01:00N 44°41' E 013°03'817.0
2017-Sep-18 00:30N 44°33' E 013°07'816.9
2017-Sep-18 00:00N 44°25' E 013°11'816.7
2017-Sep-17 23:30N 44°17' E 013°15'10115.6
2017-Sep-17 17:00N 43°36' E 015°24'56 3.7 340 / 121014.610.8 21.518.521.9
2017-Sep-17 02:00N 42°42' E 015°42'123 5.1 070 / 121011.010.8 23.020.822.7
2017-Sep-16 02:00N 41°48' E 018°12'411.8 140 / 111012.910.8 22.520.323.5
2017-Sep-16 01:41N 41°51' E 018°14'314.2
2017-Sep-16 01:30N 41°49' E 018°15'4214.0
2017-Sep-15 22:30N 41°08' E 018°25'713.8
2017-Sep-15 22:00N 41°01' E 018°27'1014.1
2017-Sep-15 21:18N 40°51' E 018°30'414.0
2017-Sep-15 20:59N 40°47' E 018°31'713.9
2017-Sep-15 20:30N 40°40' E 018°33'813.7
2017-Sep-15 19:54N 40°32' E 018°35'513.7
2017-Sep-15 19:30N 40°27' E 018°36'713.8
2017-Sep-15 19:00N 40°20' E 018°38'713.8
2017-Sep-15 18:30N 40°13' E 018°39'713.9
2017-Sep-15 17:59N 40°06' E 018°41'714.1
2017-Sep-15 17:30N 39°60' E 018°38'714.2
2017-Sep-15 17:00N 39°53' E 018°35'714.4
2017-Sep-15 16:30N 39°46' E 018°31'714.5
2017-Sep-15 16:00N 39°40' E 018°26'814.9
2017-Sep-15 15:30N 39°34' E 018°20'715.1
2017-Sep-15 15:00N 39°28' E 018°14'715.0
2017-Sep-15 14:30N 39°22' E 018°09'714.9
2017-Sep-15 14:00N 39°16' E 018°03'714.5
2017-Sep-15 13:30N 39°11' E 017°57'714.6
2017-Sep-15 13:00N 39°05' E 017°52'714.8
2017-Sep-15 12:30N 38°59' E 017°46'815.0
2017-Sep-15 12:00N 38°53' E 017°40'815.1
2017-Sep-15 11:30N 38°47' E 017°34'815.0
2017-Sep-15 10:58N 38°41' E 017°28'714.6
2017-Sep-15 10:30N 38°35' E 017°23'814.6
2017-Sep-15 09:59N 38°29' E 017°17'1014.2
2017-Sep-15 09:15N 38°21' E 017°09'5313.9
2017-Sep-15 05:28N 37°39' E 016°28'713.8
2017-Sep-15 04:59N 37°34' E 016°23'713.8
2017-Sep-15 04:29N 37°28' E 016°18'713.7
2017-Sep-15 03:59N 37°22' E 016°13'713.6
2017-Sep-15 03:27N 37°17' E 016°07'613.6
2017-Sep-15 03:00N 37°12' E 016°03'2013.7
2017-Sep-15 01:31N 36°56' E 015°47'514.3
2017-Sep-15 01:10N 36°51' E 015°44'214.7
2017-Sep-15 01:00N 36°50' E 015°42'  
Track history (hours):
 
Tides and Currents Weather Stations Pressure Air Temp Water Temp Dewpoint Dewpoint Depression Visibility Wind Speed Wind Dir Waves Ship Positions

Arcadia

Last reported at 2017-Sep-25 01:00 UTC. Time now 2017-Sep-25 07:49 UTC.
Position N 36°30' E 021°48'.

Length 285.1 m; beam 32.2 m; draft 8 m.

Type: Passenger vessel. MMSI: 310473000.

Wind from 360 at 5 knots

Barometer 1016.3 mb
Air temperature 22.0 ° C
Visibility: greater than 10.8 NM
Dewpoint 16.6 ° C
Water temperature 25.0 ° C

Date/timePositionNaut miles runAvg speedWind from/ knotsBaromVisibWave heightAir tempDewpointWater temp
2017-Sep-25 01:00N 36°30' E 021°48'15115.9 360 / 51016.310.8 22.016.625.0
2017-Sep-24 15:30N 37°14' E 024°48'917.6
2017-Sep-24 15:01N 37°19' E 024°57'917.9
2017-Sep-24 14:31N 37°24' E 025°06'917.1
2017-Sep-24 14:01N 37°28' E 025°16'3 5.1
2017-Sep-24 13:28N 37°28' E 025°19'0 0.0
2017-Sep-24 12:58N 37°28' E 025°19'0 0.0
2017-Sep-24 12:25N 37°28' E 025°19'0 0.0
2017-Sep-24 11:58N 37°28' E 025°19'0 0.0
2017-Sep-24 11:25N 37°28' E 025°19'0 0.0
2017-Sep-24 10:58N 37°28' E 025°19'0 0.0
2017-Sep-24 10:28N 37°28' E 025°19'0 0.0
2017-Sep-24 09:07N 37°28' E 025°19'0 0.0
2017-Sep-24 08:58N 37°28' E 025°19'0 0.0
2017-Sep-24 08:28N 37°28' E 025°19'0 0.0
2017-Sep-24 07:49N 37°28' E 025°19'0 0.0
2017-Sep-24 07:28N 37°28' E 025°19'0 0.0
2017-Sep-24 06:58N 37°28' E 025°19'0 0.0
2017-Sep-24 06:25N 37°28' E 025°19'0 0.0
2017-Sep-24 05:58N 37°28' E 025°19'0 0.0
2017-Sep-24 05:28N 37°28' E 025°19'0 0.0
2017-Sep-24 04:58N 37°28' E 025°19'0 0.5
2017-Sep-24 04:30N 37°28' E 025°19'3 5.8
2017-Sep-24 04:00N 37°27' E 025°16'511.1
2017-Sep-24 03:30N 37°26' E 025°09'611.4
2017-Sep-24 02:58N 37°23' E 025°02'511.7
2017-Sep-24 02:31N 37°21' E 024°56'612.0
2017-Sep-24 02:01N 37°19' E 024°49'2120.8
2017-Sep-24 01:00N 37°12' E 024°24'170 4.8 360 / 91019.810.8 21.713.124.4
2017-Sep-22 14:00N 36°12' E 021°06'21417.8 330 / 241019.710.8 23.413.125.8
2017-Sep-22 02:00N 36°00' E 016°42'7314.6 1020.210.8 22.212.925.6
2017-Sep-21 21:00N 36°00' E 015°12'1540.4 320 / 81020.410.8 22.014.023.5
2017-Sep-21 20:37N 36°03' E 014°53'217.8
2017-Sep-21 20:29N 36°02' E 014°51'917.7
2017-Sep-21 20:00N 35°58' E 014°42'815.4
2017-Sep-21 19:30N 35°55' E 014°33'3 0.2
2017-Sep-21 03:56N 35°53' E 014°31'3 6.7
2017-Sep-21 03:30N 35°55' E 014°33'611.9
2017-Sep-21 03:00N 35°59' E 014°39'817.3
2017-Sep-21 02:30N 36°04' E 014°47'1325.2
2017-Sep-21 02:00N 36°12' E 015°00'9318.5 330 / 231018.010.8 21.010.922.7
2017-Sep-20 20:58N 37°23' E 016°14'1019.4
2017-Sep-20 20:28N 37°31' E 016°21'12717.0
2017-Sep-20 13:00N 39°12' E 018°00'19217.5 320 / 171011.710.8 22.713.225.1
2017-Sep-20 02:00N 42°06' E 016°12'155 7.1 030 / 81008.910.8 17.810.422.5
2017-Sep-19 04:05N 44°23' E 014°33'316.2
2017-Sep-19 03:56N 44°23' E 014°29'715.9
2017-Sep-19 03:30N 44°24' E 014°20'815.9
2017-Sep-19 03:01N 44°25' E 014°09'816.0
2017-Sep-19 02:30N 44°26' E 013°58'815.4
2017-Sep-19 02:00N 44°24' E 013°47'816.1
2017-Sep-19 01:30N 44°30' E 013°39'816.6
2017-Sep-19 01:01N 44°37' E 013°33'816.6
2017-Sep-19 00:31N 44°44' E 013°26'816.7
2017-Sep-19 00:00N 44°51' E 013°20'815.5
2017-Sep-18 23:30N 44°55' E 013°11'917.2
2017-Sep-18 23:00N 44°56' E 012°59'816.0
2017-Sep-18 22:31N 44°58' E 012°48'816.8
2017-Sep-18 22:01N 45°05' E 012°42'816.5
2017-Sep-18 21:30N 45°10' E 012°33'714.1
2017-Sep-18 21:00N 45°17' E 012°30'612.9
2017-Sep-18 20:30N 45°24' E 012°29'5 9.4
2017-Sep-18 20:00N 45°26' E 012°23'3 5.2
2017-Sep-18 19:30N 45°26' E 012°20'1 1.5
2017-Sep-18 18:59N 45°26' E 012°19'0 0.0
2017-Sep-18 18:29N 45°26' E 012°19'0 0.0
2017-Sep-18 17:59N 45°26' E 012°19'0 0.0
2017-Sep-18 17:29N 45°26' E 012°19'0 0.0
2017-Sep-18 16:59N 45°26' E 012°19'0 0.0
2017-Sep-18 16:29N 45°26' E 012°19'0 0.0
2017-Sep-18 15:59N 45°26' E 012°19'0 0.0
2017-Sep-18 15:29N 45°26' E 012°19'0 0.0
2017-Sep-18 14:59N 45°26' E 012°19'0 0.0
2017-Sep-18 14:29N 45°26' E 012°19'0 0.0
2017-Sep-18 13:59N 45°26' E 012°19'0 0.0
2017-Sep-18 13:29N 45°26' E 012°19'0 0.0
2017-Sep-18 12:59N 45°26' E 012°19'0 0.0
2017-Sep-18 12:29N 45°26' E 012°19'0 0.0
2017-Sep-18 11:59N 45°26' E 012°19'0 0.0
2017-Sep-18 11:29N 45°26' E 012°19'0 0.0
2017-Sep-18 10:59N 45°26' E 012°19'0 0.0
2017-Sep-18 10:29N 45°26' E 012°19'0 0.0
2017-Sep-18 09:59N 45°26' E 012°19'0 0.0
2017-Sep-18 09:29N 45°26' E 012°19'0 0.0
2017-Sep-18 08:59N 45°26' E 012°19'0 0.0
2017-Sep-18 08:29N 45°26' E 012°19'0 0.0
2017-Sep-18 07:59N 45°26' E 012°19'0 0.0
2017-Sep-18 07:29N 45°26' E 012°19'0 0.0
2017-Sep-18 06:59N 45°26' E 012°19'0 0.0
2017-Sep-18 06:26N 45°26' E 012°19'0 0.0
2017-Sep-18 05:59N 45°26' E 012°19'1 2.5
2017-Sep-18 05:30N 45°26' E 012°20'3 5.8
2017-Sep-18 05:00N 45°26' E 012°24'5 9.7
2017-Sep-18 04:30N 45°23' E 012°30'611.8
2017-Sep-18 04:00N 45°18' E 012°32'714.4
2017-Sep-18 03:31N 45°12' E 012°39'714.4
2017-Sep-18 03:01N 45°09' E 012°48'714.3
2017-Sep-18 02:30N 45°03' E 012°52'714.2
2017-Sep-18 02:01N 44°56' E 012°55'8470.0
2017-Sep-18 02:00N 44°48' E 012°54'3 6.6 240 / 171014.210.8 19.511.022.0
2017-Sep-18 01:30N 44°49' E 012°58'816.9
2017-Sep-18 01:00N 44°41' E 013°03'817.0
2017-Sep-18 00:30N 44°33' E 013°07'816.9
2017-Sep-18 00:00N 44°25' E 013°11'816.7
2017-Sep-17 23:30N 44°17' E 013°15'10115.6
2017-Sep-17 17:00N 43°36' E 015°24'56 3.7 340 / 121014.610.8 21.518.521.9
2017-Sep-17 02:00N 42°42' E 015°42'123 5.1 070 / 121011.010.8 23.020.822.7
2017-Sep-16 02:00N 41°48' E 018°12'411.8 140 / 111012.910.8 22.520.323.5
2017-Sep-16 01:41N 41°51' E 018°14'314.2
2017-Sep-16 01:30N 41°49' E 018°15'4214.0
2017-Sep-15 22:30N 41°08' E 018°25'713.8
2017-Sep-15 22:00N 41°01' E 018°27'1014.1
2017-Sep-15 21:18N 40°51' E 018°30'414.0
2017-Sep-15 20:59N 40°47' E 018°31'713.9
2017-Sep-15 20:30N 40°40' E 018°33'813.7
2017-Sep-15 19:54N 40°32' E 018°35'513.7
2017-Sep-15 19:30N 40°27' E 018°36'713.8
2017-Sep-15 19:00N 40°20' E 018°38'713.8
2017-Sep-15 18:30N 40°13' E 018°39'713.9
2017-Sep-15 17:59N 40°06' E 018°41'714.1
2017-Sep-15 17:30N 39°60' E 018°38'714.2
2017-Sep-15 17:00N 39°53' E 018°35'714.4
2017-Sep-15 16:30N 39°46' E 018°31'714.5
2017-Sep-15 16:00N 39°40' E 018°26'814.9
2017-Sep-15 15:30N 39°34' E 018°20'715.1
2017-Sep-15 15:00N 39°28' E 018°14'715.0
2017-Sep-15 14:30N 39°22' E 018°09'714.9
2017-Sep-15 14:00N 39°16' E 018°03'714.5
2017-Sep-15 13:30N 39°11' E 017°57'714.6
2017-Sep-15 13:00N 39°05' E 017°52'714.8
2017-Sep-15 12:30N 38°59' E 017°46'815.0
2017-Sep-15 12:00N 38°53' E 017°40'815.1
2017-Sep-15 11:30N 38°47' E 017°34'815.0
2017-Sep-15 10:58N 38°41' E 017°28'714.6
2017-Sep-15 10:30N 38°35' E 017°23'814.6
2017-Sep-15 09:59N 38°29' E 017°17'1014.2
2017-Sep-15 09:15N 38°21' E 017°09'5313.9
2017-Sep-15 05:28N 37°39' E 016°28'713.8
2017-Sep-15 04:59N 37°34' E 016°23'713.8
2017-Sep-15 04:29N 37°28' E 016°18'713.7
2017-Sep-15 03:59N 37°22' E 016°13'713.6
2017-Sep-15 03:27N 37°17' E 016°07'613.6
2017-Sep-15 03:00N 37°12' E 016°03'2013.7
2017-Sep-15 01:31N 36°56' E 015°47'514.3
2017-Sep-15 01:10N 36°51' E 015°44'214.7
2017-Sep-15 01:00N 36°50' E 015°42'  

Dump ship's entire track history